Time;durP1;ratioP1;P1;durP2;ratioP2;P2;SDS_P1;SDS_P2;PMS_P1;PMS_P2;Temp;Humidity;BMP_temperature;BMP_pressure;BME280_temperature;BME280_humidity;BME280_pressure;Samples;Min_cycle;Max_cycle;Signal;HPM_P1;HPM_P2
2021/10/11 00:00:05;;;;;;;;;59.00;47.75;26.90;30.00;;;;;;842212;23;6024;-84
2021/10/11 00:00:26;;;;;;;;;55.00;46.00;26.90;30.80;;;;;;842093;23;6705;-88
2021/10/11 00:00:47;;;;;;;;;61.67;49.00;26.90;30.90;;;;;;842142;23;5921;-87
2021/10/11 00:01:07;;;;;;;;;55.75;46.50;26.90;30.80;;;;;;841946;23;6210;-85
2021/10/11 00:01:28;;;;;;;;;58.50;47.50;26.90;31.00;;;;;;841973;23;5948;-86
2021/10/11 00:01:49;;;;;;;;;58.00;46.00;26.90;30.80;;;;;;837692;23;6741;-83
2021/10/11 00:02:09;;;;;;;;;61.40;49.80;26.80;29.90;;;;;;838098;23;6001;-85
2021/10/11 00:02:30;;;;;;;;;62.67;48.33;26.80;31.10;;;;;;837980;23;6018;-89
2021/10/11 00:02:51;;;;;;;;;58.25;47.25;26.90;30.00;;;;;;837854;23;6288;-84
2021/10/11 00:03:11;;;;;;;;;61.00;48.50;26.80;29.90;;;;;;838271;23;5987;-86
2021/10/11 00:03:32;;;;;;;;;61.40;49.00;26.80;29.90;;;;;;838415;23;6033;-85
2021/10/11 00:03:53;;;;;;;;;57.25;47.75;26.90;30.90;;;;;;842197;23;6051;-86
2021/10/11 00:04:13;;;;;;;;;61.00;48.00;26.90;30.90;;;;;;842207;23;6246;-87
2021/10/11 00:04:34;;;;;;;;;57.00;46.00;26.90;31.00;;;;;;842136;23;6186;-85
2021/10/11 00:04:55;;;;;;;;;55.00;46.25;26.80;31.00;;;;;;842112;23;5728;-89
2021/10/11 00:05:16;;;;;;;;;57.50;47.00;26.80;30.80;;;;;;842352;23;6041;-89
2021/10/11 00:05:37;;;;;;;;;57.25;48.00;26.90;30.90;;;;;;842157;23;6361;-86
2021/10/11 00:05:57;;;;;;;;;57.25;47.00;26.80;30.70;;;;;;842163;23;6343;-86
2021/10/11 00:06:18;;;;;;;;;60.33;48.67;26.80;30.70;;;;;;842292;23;6160;-86
2021/10/11 00:06:39;;;;;;;;;58.50;46.25;26.80;30.80;;;;;;842153;23;6119;-86
2021/10/11 00:07:00;;;;;;;;;60.40;48.00;26.80;30.80;;;;;;837757;23;7086;-84
2021/10/11 00:07:21;;;;;;;;;56.00;46.80;26.90;31.00;;;;;;838028;23;6795;-84
2021/10/11 00:07:42;;;;;;;;;58.00;46.40;26.80;30.80;;;;;;838041;23;6707;-85
2021/10/11 00:08:03;;;;;;;;;59.60;49.00;26.90;30.80;;;;;;838026;23;6107;-89
2021/10/11 00:08:23;;;;;;;;;60.25;48.00;26.90;30.70;;;;;;838054;23;5896;-80
2021/10/11 00:08:44;;;;;;;;;56.50;46.50;26.90;30.70;;;;;;838600;23;6221;-85
2021/10/11 00:09:05;;;;;;;;;54.00;46.00;26.90;30.70;;;;;;842027;23;6353;-83
2021/10/11 00:09:25;;;;;;;;;56.00;46.00;26.90;30.70;;;;;;841995;23;6162;-82
2021/10/11 00:09:46;;;;;;;;;54.50;45.25;26.90;29.90;;;;;;842118;23;5231;-84
2021/10/11 00:10:07;;;;;;;;;59.00;47.60;26.80;30.70;;;;;;842201;23;6155;-86
2021/10/11 00:10:28;;;;;;;;;57.40;46.40;26.80;30.60;;;;;;842133;23;6197;-84
2021/10/11 00:10:51;;;;;;;;;58.00;47.25;26.80;30.80;;;;;;842286;23;6052;-85
2021/10/11 00:11:12;;;;;;;;;57.60;45.80;26.80;30.70;;;;;;837699;23;9529;-84
2021/10/11 00:11:33;;;;;;;;;57.80;47.40;26.90;30.80;;;;;;838056;23;6070;-84
2021/10/11 00:11:53;;;;;;;;;57.60;46.60;26.80;29.90;;;;;;838008;23;6134;-88
2021/10/11 00:12:14;;;;;;;;;60.60;47.80;26.80;29.90;;;;;;838000;23;6716;-83
2021/10/11 00:12:35;;;;;;;;;57.80;47.40;26.80;30.00;;;;;;837792;23;5992;-86
2021/10/11 00:12:56;;;;;;;;;56.40;46.00;26.80;30.80;;;;;;838585;23;6134;-87
2021/10/11 00:13:17;;;;;;;;;54.60;45.00;26.80;30.80;;;;;;842091;23;6132;-92
2021/10/11 00:13:38;;;;;;;;;58.00;46.60;26.80;30.80;;;;;;842254;23;6163;-86
2021/10/11 00:13:58;;;;;;;;;56.00;47.00;26.80;30.80;;;;;;842230;23;6158;-89
2021/10/11 00:14:19;;;;;;;;;56.80;47.00;26.80;30.00;;;;;;842230;23;6291;-81
2021/10/11 00:14:40;;;;;;;;;55.00;46.50;26.80;30.80;;;;;;842267;23;6028;-85
2021/10/11 00:15:02;;;;;;;;;60.50;48.75;26.80;30.80;;;;;;841925;23;6212;-85
2021/10/11 00:15:26;;;;;;;;;58.25;46.50;26.80;30.00;;;;;;842046;23;6945;-86
2021/10/11 00:15:47;;;;;;;;;54.00;45.00;26.80;30.80;;;;;;841953;23;6596;-83
2021/10/11 00:16:08;;;;;;;;;60.75;49.25;26.80;30.80;;;;;;842178;23;6149;-83
2021/10/11 00:16:29;;;;;;;;;58.25;46.00;26.90;30.00;;;;;;842205;23;6754;-84
2021/10/11 00:16:50;;;;;;;;;59.00;48.75;26.90;29.90;;;;;;842202;23;6961;-86
2021/10/11 00:17:10;;;;;;;;;54.20;46.00;26.90;30.80;;;;;;842059;23;6268;-78
2021/10/11 00:17:31;;;;;;;;;54.20;45.00;26.90;30.80;;;;;;841802;23;6139;-81
2021/10/11 00:17:52;;;;;;;;;51.00;43.00;26.80;30.90;;;;;;841615;23;5996;-79
2021/10/11 00:18:12;;;;;;;;;62.00;49.67;26.80;29.90;;;;;;841836;23;5891;-83
2021/10/11 00:18:33;;;;;;;;;54.75;43.75;26.90;30.90;;;;;;841892;23;6916;-84
2021/10/11 00:18:54;;;;;;;;;53.33;45.33;26.90;31.00;;;;;;841844;23;5884;-84
2021/10/11 00:19:14;;;;;;;;;52.00;43.25;26.90;30.00;;;;;;841892;23;6058;-83
2021/10/11 00:19:36;;;;;;;;;51.75;43.00;26.90;30.90;;;;;;841911;23;6587;-84
2021/10/11 00:19:57;;;;;;;;;52.00;44.00;26.90;30.80;;;;;;841858;23;6581;-84
2021/10/11 00:20:18;;;;;;;;;49.00;42.00;26.90;30.80;;;;;;842132;23;6139;-83
2021/10/11 00:20:39;;;;;;;;;51.25;42.75;26.90;29.90;;;;;;842020;23;6028;-85
2021/10/11 00:20:59;;;;;;;;;54.75;46.00;26.90;29.90;;;;;;842218;23;7439;-85
2021/10/11 00:21:20;;;;;;;;;55.25;45.25;26.90;30.80;;;;;;842025;23;6358;-85
2021/10/11 00:21:41;;;;;;;;;57.60;45.60;26.90;30.00;;;;;;841507;23;6269;-85
2021/10/11 00:22:03;;;;;;;;;53.50;44.75;26.90;30.00;;;;;;842161;23;6147;-82
2021/10/11 00:22:24;;;;;;;;;49.00;42.00;26.90;30.80;;;;;;841954;23;6312;-82
2021/10/11 00:22:44;;;;;;;;;50.40;43.20;26.90;30.80;;;;;;842146;23;6194;-82
2021/10/11 00:23:05;;;;;;;;;53.50;45.25;26.90;29.90;;;;;;842236;23;6230;-84
2021/10/11 00:23:26;;;;;;;;;52.00;43.33;26.90;30.90;;;;;;842054;23;6302;-83
2021/10/11 00:23:47;;;;;;;;;56.00;45.60;26.90;30.00;;;;;;842167;23;6241;-81
2021/10/11 00:24:07;;;;;;;;;57.25;46.50;26.90;30.80;;;;;;842188;23;6149;-83
2021/10/11 00:24:28;;;;;;;;;55.25;45.25;26.90;30.80;;;;;;841896;23;6084;-83
2021/10/11 00:24:49;;;;;;;;;54.50;45.00;26.80;29.90;;;;;;842272;23;6216;-79
2021/10/11 00:25:11;;;;;;;;;56.50;46.00;26.90;29.90;;;;;;842162;23;6097;-82
2021/10/11 00:25:32;;;;;;;;;57.75;47.00;26.80;29.90;;;;;;842191;23;6144;-83
2021/10/11 00:25:52;;;;;;;;;57.00;46.75;26.80;29.90;;;;;;842104;23;6038;-83
2021/10/11 00:26:13;;;;;;;;;59.00;48.25;26.80;31.80;;;;;;842342;23;6092;-84
2021/10/11 00:26:34;;;;;;;;;53.25;45.00;26.90;30.80;;;;;;841874;23;6035;-83
2021/10/11 00:26:55;;;;;;;;;53.50;43.00;26.80;29.90;;;;;;842108;23;5224;-83
2021/10/11 00:27:17;;;;;;;;;56.75;47.50;26.80;30.80;;;;;;842273;23;6022;-83
2021/10/11 00:27:38;;;;;;;;;50.60;41.60;26.80;30.80;;;;;;842014;23;6759;-82
2021/10/11 00:27:58;;;;;;;;;59.00;46.80;26.80;30.80;;;;;;842268;23;6161;-83
2021/10/11 00:28:19;;;;;;;;;54.80;44.20;26.80;30.80;;;;;;841984;23;6644;-82
2021/10/11 00:28:40;;;;;;;;;52.50;43.25;26.80;30.80;;;;;;842245;23;6092;-83
2021/10/11 00:29:01;;;;;;;;;51.00;42.25;26.80;30.80;;;;;;842223;23;6138;-82
2021/10/11 00:29:21;;;;;;;;;54.50;45.50;26.80;31.00;;;;;;842117;23;6095;-81
2021/10/11 00:29:42;;;;;;;;;51.80;44.00;26.80;30.90;;;;;;842011;23;6148;-82
2021/10/11 00:30:09;;;;;;;;;54.75;43.75;26.80;30.80;;;;;;841987;23;6265;-84
2021/10/11 00:30:30;;;;;;;;;54.80;44.20;26.80;30.90;;;;;;841868;23;6540;-83
2021/10/11 00:30:50;;;;;;;;;58.25;46.75;26.80;31.00;;;;;;837801;23;5897;-84
2021/10/11 00:31:11;;;;;;;;;52.40;44.00;26.80;30.90;;;;;;837934;23;6013;-82
2021/10/11 00:31:32;;;;;;;;;50.60;42.00;26.70;30.00;;;;;;837819;23;6003;-83
2021/10/11 00:31:53;;;;;;;;;54.50;46.00;26.80;30.90;;;;;;837927;23;5953;-81
2021/10/11 00:32:14;;;;;;;;;51.60;43.80;26.80;31.00;;;;;;837983;23;6120;-83
2021/10/11 00:32:34;;;;;;;;;54.50;46.00;26.70;30.00;;;;;;838640;23;6096;-84
2021/10/11 00:32:55;;;;;;;;;55.50;47.00;26.80;31.00;;;;;;842135;23;6034;-83
2021/10/11 00:33:16;;;;;;;;;51.00;41.00;26.80;30.00;;;;;;842021;23;6112;-85
2021/10/11 00:33:37;;;;;;;;;54.00;44.00;26.70;30.00;;;;;;842222;23;5913;-86
2021/10/11 00:33:58;;;;;;;;;48.60;42.00;26.80;30.90;;;;;;842098;23;6263;-83
2021/10/11 00:34:18;;;;;;;;;59.75;48.50;26.80;30.90;;;;;;842359;23;6157;-85
2021/10/11 00:34:39;;;;;;;;;53.50;44.50;26.80;30.90;;;;;;842122;23;6203;-83
2021/10/11 00:35:00;;;;;;;;;51.60;41.60;26.80;30.90;;;;;;841880;23;6169;-85
2021/10/11 00:35:20;;;;;;;;;47.00;39.60;26.80;31.10;;;;;;841983;23;6213;-82
2021/10/11 00:35:41;;;;;;;;;51.50;42.50;26.80;30.00;;;;;;842343;23;6002;-83
2021/10/11 00:36:02;;;;;;;;;52.50;44.25;26.80;30.00;;;;;;842014;23;6178;-82
2021/10/11 00:36:24;;;;;;;;;52.75;45.25;26.80;30.80;;;;;;841884;23;7506;-84
2021/10/11 00:36:46;;;;;;;;;56.60;45.40;26.80;30.80;;;;;;842045;23;6860;-82
2021/10/11 00:37:07;;;;;;;;;54.50;44.50;26.80;30.00;;;;;;841955;23;6730;-89
2021/10/11 00:37:27;;;;;;;;;53.00;43.50;26.80;30.90;;;;;;842103;23;4862;-79
2021/10/11 00:37:48;;;;;;;;;51.60;44.00;26.80;31.00;;;;;;842132;23;6773;-81
2021/10/11 00:38:09;;;;;;;;;51.50;43.00;26.80;30.00;;;;;;842293;23;6188;-86
2021/10/11 00:38:30;;;;;;;;;51.25;43.25;26.80;30.00;;;;;;841963;23;6220;-81
2021/10/11 00:38:51;;;;;;;;;47.00;41.00;26.80;30.90;;;;;;842063;23;6708;-83
2021/10/11 00:39:12;;;;;;;;;53.75;43.75;26.80;30.90;;;;;;842212;23;6382;-83
2021/10/11 00:39:32;;;;;;;;;49.00;42.00;26.80;30.00;;;;;;842056;23;6160;-82
2021/10/11 00:39:53;;;;;;;;;53.00;44.75;26.80;31.00;;;;;;842195;23;6072;-81
2021/10/11 00:40:14;;;;;;;;;51.00;43.00;26.80;31.10;;;;;;842171;23;6136;-82
2021/10/11 00:40:34;;;;;;;;;51.00;42.00;26.80;30.90;;;;;;842042;23;6685;-82
2021/10/11 00:40:55;;;;;;;;;56.00;44.75;26.80;31.10;;;;;;842288;23;5986;-83
2021/10/11 00:41:16;;;;;;;;;52.00;42.75;26.80;31.10;;;;;;842214;23;6830;-82
2021/10/11 00:41:37;;;;;;;;;54.40;45.20;26.80;31.10;;;;;;842010;23;6149;-84
2021/10/11 00:41:58;;;;;;;;;54.50;45.00;26.80;31.30;;;;;;842080;23;6232;-82
2021/10/11 00:42:18;;;;;;;;;52.00;43.75;26.80;31.40;;;;;;842102;23;6095;-82
2021/10/11 00:42:39;;;;;;;;;58.50;45.75;26.80;31.40;;;;;;841972;23;6172;-81
2021/10/11 00:43:00;;;;;;;;;55.00;45.00;26.80;30.40;;;;;;841872;23;6699;-81
2021/10/11 00:43:21;;;;;;;;;52.00;44.00;26.80;31.60;;;;;;842055;23;6295;-79
2021/10/11 00:43:41;;;;;;;;;49.00;41.00;26.80;31.70;;;;;;842262;23;6898;-79
2021/10/11 00:44:03;;;;;;;;;49.60;42.00;26.80;31.70;;;;;;841636;23;5982;-78
2021/10/11 00:44:24;;;;;;;;;51.60;44.00;26.80;31.60;;;;;;841659;23;6618;-83
2021/10/11 00:44:44;;;;;;;;;53.00;43.50;26.80;31.40;;;;;;842017;23;6580;-83
2021/10/11 00:45:06;;;;;;;;;53.50;45.00;26.90;31.60;;;;;;841748;23;5979;-81
2021/10/11 00:45:26;;;;;;;;;54.80;44.40;26.90;31.60;;;;;;841723;23;7970;-81
2021/10/11 00:45:47;;;;;;;;;56.25;47.25;26.90;31.50;;;;;;842128;23;5878;-82
2021/10/11 00:46:08;;;;;;;;;54.25;44.25;26.90;30.50;;;;;;841928;23;6113;-82
2021/10/11 00:46:29;;;;;;;;;55.00;44.67;26.90;31.80;;;;;;842266;23;6035;-82
2021/10/11 00:46:49;;;;;;;;;55.75;45.50;26.90;31.60;;;;;;841974;23;6335;-80
2021/10/11 00:47:10;;;;;;;;;53.00;45.20;26.90;31.80;;;;;;842107;23;6196;-81
2021/10/11 00:47:31;;;;;;;;;56.50;44.75;26.90;31.80;;;;;;842089;23;6036;-79
2021/10/11 00:47:52;;;;;;;;;52.00;43.50;26.90;31.70;;;;;;841995;23;6154;-78
2021/10/11 00:48:12;;;;;;;;;53.20;44.00;26.90;31.60;;;;;;842058;23;7406;-79
2021/10/11 00:48:34;;;;;;;;;57.25;47.00;26.90;31.50;;;;;;841769;23;6116;-82
2021/10/11 00:48:55;;;;;;;;;51.00;42.75;26.90;31.60;;;;;;842064;23;6804;-79
2021/10/11 00:49:16;;;;;;;;;51.00;42.75;26.90;31.60;;;;;;842219;23;6106;-81
2021/10/11 00:49:36;;;;;;;;;54.00;44.00;26.90;31.50;;;;;;841800;23;6209;-80
2021/10/11 00:49:57;;;;;;;;;52.80;44.40;27.00;31.60;;;;;;841935;23;6150;-80
2021/10/11 00:50:18;;;;;;;;;56.00;45.40;27.00;31.50;;;;;;842353;23;6995;-81
2021/10/11 00:50:39;;;;;;;;;56.00;46.80;27.00;30.50;;;;;;837835;23;6617;-79
2021/10/11 00:50:59;;;;;;;;;56.75;44.75;27.00;31.80;;;;;;837771;23;5906;-81
2021/10/11 00:51:20;;;;;;;;;59.00;44.67;27.00;31.60;;;;;;837943;23;5977;-80
2021/10/11 00:51:42;;;;;;;;;57.50;46.00;27.00;32.00;;;;;;837991;23;6879;-80
2021/10/11 00:52:04;;;;;;;;;52.00;43.50;27.00;31.50;;;;;;837824;23;6656;-80
2021/10/11 00:52:25;;;;;;;;;53.20;43.00;27.00;31.50;;;;;;838977;23;6989;-80
2021/10/11 00:52:46;;;;;;;;;52.80;43.40;27.00;31.60;;;;;;842078;23;6133;-79
2021/10/11 00:53:07;;;;;;;;;51.00;42.00;27.00;32.10;;;;;;841984;23;6205;-78
2021/10/11 00:53:28;;;;;;;;;50.00;42.40;27.00;30.90;;;;;;837754;23;6032;-80
2021/10/11 00:53:49;;;;;;;;;49.00;41.60;27.00;31.60;;;;;;837853;23;6040;-78
2021/10/11 00:54:10;;;;;;;;;48.00;41.00;27.00;31.90;;;;;;838025;23;6075;-78
2021/10/11 00:54:32;;;;;;;;;58.00;49.00;27.00;31.60;;;;;;838014;23;5941;-82
2021/10/11 00:54:53;;;;;;;;;53.20;44.60;27.10;31.90;;;;;;837749;23;7059;-82
2021/10/11 00:55:14;;;;;;;;;56.25;46.75;27.10;32.70;;;;;;839119;23;5894;-83
2021/10/11 00:55:35;;;;;;;;;56.60;45.80;27.00;32.20;;;;;;842219;23;6100;-81
2021/10/11 00:55:56;;;;;;;;;62.00;46.50;27.10;32.40;;;;;;842195;23;5688;-81
2021/10/11 00:56:17;;;;;;;;;53.00;44.25;27.00;31.10;;;;;;842068;23;6049;-79
2021/10/11 00:56:38;;;;;;;;;55.00;45.00;27.00;31.10;;;;;;842123;23;6744;-81
2021/10/11 00:56:58;;;;;;;;;54.00;44.00;27.10;32.20;;;;;;842013;23;6154;-81
2021/10/11 00:57:19;;;;;;;;;53.00;45.00;27.10;32.00;;;;;;842085;23;6088;-78
2021/10/11 00:57:40;;;;;;;;;57.00;46.00;27.10;32.20;;;;;;842296;23;6090;-80
2021/10/11 00:58:01;;;;;;;;;56.75;46.00;27.10;31.30;;;;;;842152;23;6058;-81
2021/10/11 00:58:22;;;;;;;;;54.75;46.00;27.10;32.30;;;;;;842212;23;6098;-79
2021/10/11 00:58:42;;;;;;;;;54.33;45.00;27.10;32.20;;;;;;841982;23;6047;-79
2021/10/11 00:59:03;;;;;;;;;57.25;46.50;27.00;31.20;;;;;;842091;23;6327;-79
2021/10/11 00:59:24;;;;;;;;;55.20;44.40;27.10;32.10;;;;;;841953;23;6229;-78
2021/10/11 00:59:44;;;;;;;;;55.60;46.00;27.10;32.10;;;;;;842295;23;6811;-82
2021/10/11 01:00:06;;;;;;;;;58.40;46.00;27.10;31.40;;;;;;841983;23;6168;-80
2021/10/11 01:00:27;;;;;;;;;53.00;43.75;27.10;32.10;;;;;;841257;23;6373;-80
2021/10/11 01:00:48;;;;;;;;;51.00;42.00;27.10;32.30;;;;;;842053;23;6146;-80
2021/10/11 01:01:09;;;;;;;;;53.75;45.75;27.10;32.20;;;;;;842140;23;6130;-80
2021/10/11 01:01:29;;;;;;;;;56.50;46.75;27.10;32.30;;;;;;842075;23;5429;-78
2021/10/11 01:01:50;;;;;;;;;51.75;42.75;27.00;31.10;;;;;;841892;23;6780;-80
2021/10/11 01:02:11;;;;;;;;;49.00;42.00;27.10;32.30;;;;;;841854;23;6317;-79
2021/10/11 01:02:32;;;;;;;;;52.50;43.50;27.10;32.60;;;;;;842155;23;5478;-78
2021/10/11 01:02:53;;;;;;;;;55.00;45.00;27.10;31.70;;;;;;842019;23;7037;-80
2021/10/11 01:03:14;;;;;;;;;54.00;44.00;27.10;32.10;;;;;;841781;23;6254;-84
2021/10/11 01:03:34;;;;;;;;;55.50;45.50;27.20;32.30;;;;;;841927;23;6156;-82
2021/10/11 01:03:55;;;;;;;;;51.00;42.00;27.10;32.20;;;;;;841747;23;5958;-84
2021/10/11 01:04:17;;;;;;;;;51.00;42.00;27.10;31.10;;;;;;841947;23;6290;-81
2021/10/11 01:04:38;;;;;;;;;52.00;43.25;27.10;31.70;;;;;;841833;23;7620;-86
2021/10/11 01:04:59;;;;;;;;;53.33;42.67;27.10;31.60;;;;;;841864;23;6210;-83
2021/10/11 01:05:20;;;;;;;;;52.00;44.00;27.20;32.40;;;;;;842121;23;6009;-81
2021/10/11 01:05:41;;;;;;;;;52.00;43.60;27.20;31.90;;;;;;842108;23;6153;-84
2021/10/11 01:06:01;;;;;;;;;51.00;42.50;27.20;32.00;;;;;;841784;23;6247;-85
2021/10/11 01:06:22;;;;;;;;;52.00;43.00;27.10;31.30;;;;;;842008;23;6188;-82
2021/10/11 01:06:44;;;;;;;;;59.50;48.25;27.20;31.50;;;;;;842266;23;6044;-82
2021/10/11 01:07:05;;;;;;;;;52.00;43.60;27.20;31.10;;;;;;841860;23;6599;-80
2021/10/11 01:07:27;;;;;;;;;52.00;43.00;27.20;31.40;;;;;;841931;23;6143;-84
2021/10/11 01:07:48;;;;;;;;;50.60;41.80;27.20;32.20;;;;;;842169;23;6384;-84
2021/10/11 01:08:09;;;;;;;;;49.80;41.80;27.20;32.00;;;;;;842047;23;6235;-81
2021/10/11 01:08:30;;;;;;;;;50.75;41.75;27.20;32.50;;;;;;841900;23;6729;-81
2021/10/11 01:08:51;;;;;;;;;47.00;41.00;27.20;32.50;;;;;;842040;23;6349;-80
2021/10/11 01:09:13;;;;;;;;;54.00;45.50;27.10;31.10;;;;;;842256;23;6023;-80
2021/10/11 01:09:34;;;;;;;;;54.80;45.00;27.20;32.70;;;;;;841893;23;7425;-83
2021/10/11 01:09:54;;;;;;;;;54.00;43.80;27.20;31.50;;;;;;842005;23;6247;-84
2021/10/11 01:10:15;;;;;;;;;54.00;45.00;27.20;35.10;;;;;;842327;23;6194;-83
2021/10/11 01:10:36;;;;;;;;;65.00;50.00;27.20;40.60;;;;;;842088;23;5546;-85
2021/10/11 01:10:57;;;;;;;;;67.00;50.50;27.10;42.60;;;;;;842223;23;6049;-84
2021/10/11 01:11:18;;;;;;;;;63.80;50.20;27.10;46.30;;;;;;841986;23;6186;-77
2021/10/11 01:11:39;;;;;;;;;63.00;49.00;27.20;46.80;;;;;;842217;23;6129;-80
2021/10/11 01:12:00;;;;;;;;;59.80;47.00;27.20;47.30;;;;;;841894;23;6571;-81
2021/10/11 01:12:21;;;;;;;;;60.50;48.75;27.20;48.40;;;;;;842013;23;6296;-83
2021/10/11 01:12:42;;;;;;;;;64.00;48.00;27.20;48.30;;;;;;842194;23;6257;-79
2021/10/11 01:13:02;;;;;;;;;60.40;47.80;27.20;48.50;;;;;;841976;23;6720;-83
2021/10/11 01:13:23;;;;;;;;;55.25;45.25;27.20;47.40;;;;;;842098;23;6056;-81
2021/10/11 01:13:44;;;;;;;;;57.75;46.00;27.20;47.30;;;;;;842212;23;6192;-81
2021/10/11 01:14:05;;;;;;;;;54.00;44.80;27.20;49.20;;;;;;842051;23;6153;-82
2021/10/11 01:14:28;;;;;;;;;62.40;49.00;27.20;49.50;;;;;;842081;23;6163;-81
2021/10/11 01:14:49;;;;;;;;;59.50;47.50;27.20;49.60;;;;;;842075;23;8076;-81
2021/10/11 01:15:10;;;;;;;;;55.25;45.25;27.20;50.20;;;;;;842073;23;6361;-80
2021/10/11 01:15:31;;;;;;;;;52.00;44.00;27.20;50.80;;;;;;841937;23;6206;-81
2021/10/11 01:15:52;;;;;;;;;54.40;43.40;27.20;52.00;;;;;;842070;23;6388;-81
2021/10/11 01:16:13;;;;;;;;;56.60;45.00;27.20;50.50;;;;;;842272;23;6149;-81
2021/10/11 01:16:34;;;;;;;;;55.00;44.40;27.20;49.40;;;;;;842139;23;6235;-81
2021/10/11 01:16:55;;;;;;;;;52.20;41.00;27.20;48.50;;;;;;842058;23;6112;-81
2021/10/11 01:17:16;;;;;;;;;55.50;44.75;27.20;47.90;;;;;;842300;23;6000;-81
2021/10/11 01:17:36;;;;;;;;;49.00;40.00;27.20;47.00;;;;;;842103;23;6060;-81
2021/10/11 01:17:57;;;;;;;;;53.50;40.75;27.20;46.10;;;;;;842036;23;6790;-81
2021/10/11 01:18:18;;;;;;;;;55.80;42.60;27.20;47.30;;;;;;841932;23;6188;-81
2021/10/11 01:18:38;;;;;;;;;53.25;44.00;27.20;47.60;;;;;;842107;23;6032;-81
2021/10/11 01:18:59;;;;;;;;;46.00;39.00;27.20;45.60;;;;;;842126;23;6093;-81
2021/10/11 01:19:20;;;;;;;;;48.00;39.80;27.20;42.90;;;;;;841994;23;6199;-82
2021/10/11 01:19:41;;;;;;;;;51.75;42.50;;;;;;;;842212;23;6148;-81
2021/10/11 01:20:04;;;;;;;;;52.00;42.50;27.20;43.10;;;;;;842041;23;6395;-81
2021/10/11 01:20:25;;;;;;;;;53.00;43.00;27.20;44.10;;;;;;841993;23;8269;-84
2021/10/11 01:20:46;;;;;;;;;52.75;43.00;27.20;43.90;;;;;;842286;23;6026;-82
2021/10/11 01:21:06;;;;;;;;;54.75;43.00;27.20;40.10;;;;;;842097;23;6027;-81
2021/10/11 01:21:27;;;;;;;;;52.33;44.00;27.20;42.10;;;;;;841811;23;6099;-79
2021/10/11 01:21:48;;;;;;;;;48.60;39.60;27.20;45.40;;;;;;841934;23;6219;-79
2021/10/11 01:22:09;;;;;;;;;43.60;37.00;27.20;44.70;;;;;;841980;23;6150;-82
2021/10/11 01:22:38;;;;;;;;;52.75;42.75;27.20;45.20;;;;;;842133;23;6019;-81
2021/10/11 01:22:58;;;;;;;;;51.50;43.50;27.20;42.90;;;;;;841970;23;6813;-82
2021/10/11 01:23:19;;;;;;;;;48.00;39.60;27.20;39.90;;;;;;842040;23;6313;-81
2021/10/11 01:23:40;;;;;;;;;49.00;40.60;27.20;40.90;;;;;;842034;23;5976;-79
2021/10/11 01:24:01;;;;;;;;;49.00;39.40;27.20;41.30;;;;;;841772;23;6587;-80
2021/10/11 01:24:21;;;;;;;;;48.20;40.00;27.20;41.70;;;;;;841850;23;6070;-80
2021/10/11 01:24:42;;;;;;;;;55.00;43.00;27.20;40.00;;;;;;842154;23;5856;-80
2021/10/11 01:25:05;;;;;;;;;49.00;39.00;27.20;40.10;;;;;;841864;23;6003;-82
2021/10/11 01:25:26;;;;;;;;;50.00;40.00;27.20;39.80;;;;;;841632;23;6655;-80
2021/10/11 01:25:47;;;;;;;;;51.50;42.25;27.20;39.50;;;;;;842235;23;6099;-80
2021/10/11 01:26:08;;;;;;;;;52.25;42.00;27.20;39.50;;;;;;842124;23;6029;-80
2021/10/11 01:26:36;;;;;;;;;49.80;41.80;27.20;39.50;;;;;;842108;23;6036;-81
2021/10/11 01:26:56;;;;;;;;;49.40;41.00;27.20;40.60;;;;;;841964;23;6712;-80
2021/10/11 01:27:17;;;;;;;;;49.75;40.50;27.20;40.10;;;;;;842154;23;6065;-78
2021/10/11 01:27:38;;;;;;;;;49.50;41.00;27.20;39.80;;;;;;842149;23;6089;-82
2021/10/11 01:27:59;;;;;;;;;48.00;40.00;27.30;40.50;;;;;;841950;23;6135;-81
2021/10/11 01:28:21;;;;;;;;;55.75;42.00;27.20;40.70;;;;;;841972;23;6803;-81
2021/10/11 01:28:42;;;;;;;;;51.40;42.00;27.30;41.00;;;;;;842227;23;6133;-81
2021/10/11 01:29:03;;;;;;;;;50.50;41.75;27.20;40.90;;;;;;842045;23;6332;-81
2021/10/11 01:29:24;;;;;;;;;52.00;42.50;27.20;39.30;;;;;;842090;23;6072;-81
2021/10/11 01:29:44;;;;;;;;;48.60;41.60;27.20;39.70;;;;;;841993;23;6159;-83
2021/10/11 01:30:09;;;;;;;;;47.00;39.00;27.20;39.30;;;;;;842056;23;5978;-81
2021/10/11 01:30:29;;;;;;;;;51.75;44.00;27.30;40.30;;;;;;841727;23;6820;-82
2021/10/11 01:30:50;;;;;;;;;49.00;40.00;;;;;;;;841944;23;6369;-83
2021/10/11 01:31:11;;;;;;;;;50.25;42.50;27.20;39.10;;;;;;842305;23;6075;-82
2021/10/11 01:31:32;;;;;;;;;47.80;39.40;27.20;39.00;;;;;;841962;23;6132;-83
2021/10/11 01:31:53;;;;;;;;;53.00;43.00;27.20;40.30;;;;;;842024;23;6036;-82
2021/10/11 01:32:14;;;;;;;;;46.40;37.00;;;;;;;;842108;23;6154;-80
2021/10/11 01:32:35;;;;;;;;;49.00;38.40;27.20;39.60;;;;;;841884;23;6845;-81
2021/10/11 01:32:56;;;;;;;;;47.00;39.00;27.20;40.70;;;;;;841854;23;7620;-82
2021/10/11 01:33:17;;;;;;;;;47.00;39.00;27.20;38.80;;;;;;842120;23;6098;-81
2021/10/11 01:33:38;;;;;;;;;54.00;42.00;27.20;39.10;;;;;;842029;23;6041;-81
2021/10/11 01:33:59;;;;;;;;;52.20;41.80;27.20;37.60;;;;;;842016;23;6218;-80
2021/10/11 01:34:19;;;;;;;;;49.00;42.00;27.20;38.70;;;;;;842239;23;6117;-80
2021/10/11 01:34:40;;;;;;;;;51.50;42.75;27.30;40.20;;;;;;842105;23;7028;-81
2021/10/11 01:35:01;;;;;;;;;48.50;41.50;;;;;;;;841891;23;6323;-83
2021/10/11 01:35:22;;;;;;;;;48.40;40.40;27.20;39.10;;;;;;841996;23;6913;-83
2021/10/11 01:35:43;;;;;;;;;46.20;39.40;27.20;38.50;;;;;;842161;23;6199;-82
2021/10/11 01:36:04;;;;;;;;;47.00;39.75;27.20;38.70;;;;;;842053;23;6238;-81
2021/10/11 01:36:26;;;;;;;;;47.50;39.75;27.20;38.60;;;;;;842021;23;6881;-82
2021/10/11 01:36:47;;;;;;;;;52.25;42.50;27.20;39.90;;;;;;842194;23;6026;-81
2021/10/11 01:37:08;;;;;;;;;51.80;41.60;27.20;38.50;;;;;;841950;23;6132;-80
2021/10/11 01:37:28;;;;;;;;;52.40;41.80;27.20;39.90;;;;;;841924;23;6144;-81
2021/10/11 01:37:50;;;;;;;;;50.00;42.00;27.20;39.00;;;;;;842212;23;6119;-81
2021/10/11 01:38:11;;;;;;;;;49.80;42.60;27.20;38.60;;;;;;842109;23;6898;-81
2021/10/11 01:38:32;;;;;;;;;49.75;41.00;27.20;39.80;;;;;;842099;23;6361;-80
2021/10/11 01:38:58;;;;;;;;;50.67;41.33;27.20;38.90;;;;;;842168;23;6741;-82
2021/10/11 01:39:18;;;;;;;;;48.60;41.20;27.20;38.20;;;;;;841955;23;6660;-80
2021/10/11 01:39:39;;;;;;;;;48.00;40.67;27.20;38.60;;;;;;842184;23;6035;-79
2021/10/11 01:40:01;;;;;;;;;46.00;37.25;27.20;38.20;;;;;;841712;23;6302;-81
2021/10/11 01:40:22;;;;;;;;;45.80;37.00;27.20;38.40;;;;;;841764;23;6835;-82
2021/10/11 01:40:42;;;;;;;;;49.25;41.00;27.20;38.40;;;;;;842129;23;6894;-80
2021/10/11 01:41:03;;;;;;;;;46.60;39.00;27.20;39.30;;;;;;841941;23;6238;-81
2021/10/11 01:41:24;;;;;;;;;50.00;40.75;27.20;38.40;;;;;;842072;23;6088;-80
2021/10/11 01:41:44;;;;;;;;;51.50;42.00;27.20;38.90;;;;;;842212;23;6019;-81
2021/10/11 01:42:05;;;;;;;;;50.00;41.00;27.20;38.90;;;;;;842026;23;6083;-80
2021/10/11 01:42:26;;;;;;;;;47.00;39.40;27.10;38.80;;;;;;841796;23;6192;-81
2021/10/11 01:42:48;;;;;;;;;47.00;39.00;27.20;39.40;;;;;;842061;23;6311;-81
2021/10/11 01:43:09;;;;;;;;;51.40;42.80;27.20;39.50;;;;;;841963;23;6386;-81
2021/10/11 01:43:30;;;;;;;;;48.50;41.00;27.20;39.60;;;;;;842024;23;6745;-82
2021/10/11 01:43:51;;;;;;;;;48.40;40.60;27.20;39.70;;;;;;842082;23;6847;-83
2021/10/11 01:44:11;;;;;;;;;47.80;38.80;27.10;38.30;;;;;;842063;23;6137;-81
2021/10/11 01:44:33;;;;;;;;;49.00;42.00;27.20;38.40;;;;;;842043;23;6963;-83
2021/10/11 01:44:54;;;;;;;;;48.00;39.00;27.20;39.00;;;;;;842071;23;6370;-82
2021/10/11 01:45:15;;;;;;;;;51.50;42.50;27.20;37.30;;;;;;842237;23;6105;-81
2021/10/11 01:45:36;;;;;;;;;51.00;42.50;27.20;39.00;;;;;;841805;23;6199;-83
2021/10/11 01:45:57;;;;;;;;;51.75;41.75;27.20;38.60;;;;;;842000;23;6361;-81
2021/10/11 01:46:18;;;;;;;;;48.67;40.67;27.20;39.10;;;;;;841973;23;6066;-82
2021/10/11 01:46:39;;;;;;;;;47.00;39.50;27.20;38.30;;;;;;842002;23;6602;-82
2021/10/11 01:46:59;;;;;;;;;50.75;41.50;27.20;37.90;;;;;;841980;23;6962;-82
2021/10/11 01:47:23;;;;;;;;;52.00;42.00;27.10;37.20;;;;;;842063;23;6043;-81
2021/10/11 01:47:44;;;;;;;;;49.50;41.25;;;;;;;;842177;23;6350;-84
2021/10/11 01:48:05;;;;;;;;;47.00;39.00;27.20;37.80;;;;;;842161;23;6187;-82
2021/10/11 01:48:25;;;;;;;;;53.00;41.60;27.20;38.80;;;;;;842206;23;6064;-80
2021/10/11 01:48:46;;;;;;;;;48.50;37.00;27.10;37.80;;;;;;842253;23;6143;-78
2021/10/11 01:49:07;;;;;;;;;49.50;41.00;;;;;;;;842194;23;6131;-77
2021/10/11 01:49:28;;;;;;;;;47.25;39.75;27.10;37.10;;;;;;841827;23;6603;-80